Time;durP1;ratioP1;P1;durP2;ratioP2;P2;SDS_P1;SDS_P2;PMS_P1;PMS_P2;Temp;Humidity;BMP_temperature;BMP_pressure;BME280_temperature;BME280_humidity;BME280_pressure;Samples;Min_cycle;Max_cycle;Signal;HPM_P1;HPM_P2
2023/08/21 00:02:05;;;;;;;25.70;14.60;;;;;;;28.41;49.00;99362.96;67948;1275;1016239;-59
2023/08/21 00:05:09;;;;;;;25.70;14.20;;;;;;;28.11;49.71;99368.22;67864;1275;1016081;-59
2023/08/21 00:08:11;;;;;;;27.50;14.40;;;;;;;28.15;49.91;99376.58;67836;1275;1016457;-60
2023/08/21 00:11:14;;;;;;;27.60;14.50;;;;;;;28.09;49.62;99375.30;67942;1275;1015872;-60
2023/08/21 00:14:16;;;;;;;27.50;14.60;;;;;;;28.16;49.49;99372.45;67923;1275;1016217;-59
2023/08/21 00:17:19;;;;;;;22.70;11.90;;;;;;;28.12;49.56;99377.27;67926;1275;1016416;-57
2023/08/21 00:20:21;;;;;;;23.70;12.60;;;;;;;28.12;49.43;99376.89;67978;1275;1016507;-56
2023/08/21 00:23:23;;;;;;;26.70;12.70;;;;;;;27.98;49.73;99378.86;67927;1275;1016158;-57
2023/08/21 00:26:26;;;;;;;24.50;11.70;;;;;;;27.57;50.54;99378.20;67946;1275;1016156;-60
2023/08/21 00:29:28;;;;;;;24.00;13.20;;;;;;;27.65;50.33;99373.43;67898;1275;1016530;-57
2023/08/21 00:32:31;;;;;;;27.20;14.70;;;;;;;27.77;50.03;99369.58;67960;1275;1016501;-57
2023/08/21 00:35:33;;;;;;;26.90;14.00;;;;;;;27.67;50.62;99369.77;67928;1275;1016831;-60
2023/08/21 00:38:36;;;;;;;24.90;13.30;;;;;;;27.91;49.93;99367.39;67948;1275;1016429;-60
2023/08/21 00:41:38;;;;;;;27.30;13.70;;;;;;;28.00;49.44;99367.15;67943;1275;1016484;-60
2023/08/21 00:44:40;;;;;;;27.20;13.70;;;;;;;27.91;49.69;99365.48;67918;1275;1016322;-57
2023/08/21 00:47:43;;;;;;;26.30;14.30;;;;;;;27.82;49.86;99362.53;67972;1275;1016363;-59
2023/08/21 00:50:45;;;;;;;28.20;15.20;;;;;;;27.77;50.12;99364.05;67959;1275;1016319;-56
2023/08/21 00:53:48;;;;;;;25.30;13.70;;;;;;;27.54;50.60;99366.55;67894;1275;1016377;-60
2023/08/21 00:56:52;;;;;;;26.00;14.30;;;;;;;27.49;50.42;99361.94;67909;1275;1016487;-60
2023/08/21 00:59:54;;;;;;;27.20;14.70;;;;;;;27.42;50.63;99362.15;67885;1275;1017510;-56
2023/08/21 01:02:57;;;;;;;25.80;14.20;;;;;;;27.57;50.38;99362.27;67893;1275;1016434;-59
2023/08/21 01:05:59;;;;;;;26.10;14.60;;;;;;;27.45;50.62;99363.89;67839;1275;1015987;-59
2023/08/21 01:09:03;;;;;;;25.80;14.00;;;;;;;27.42;50.74;99363.70;67949;1275;1016514;-56
2023/08/21 01:12:06;;;;;;;27.30;14.70;;;;;;;27.37;50.95;99365.77;67867;1275;1015979;-57
2023/08/21 01:15:09;;;;;;;25.40;14.20;;;;;;;27.42;50.69;99364.89;67920;1275;1016479;-57
2023/08/21 01:18:12;;;;;;;28.60;14.00;;;;;;;27.29;50.96;99365.76;67904;1275;1016515;-60
2023/08/21 01:21:14;;;;;;;27.30;15.60;;;;;;;27.29;51.16;99362.35;67826;1275;1015859;-57
2023/08/21 01:24:17;;;;;;;28.10;15.60;;;;;;;27.44;50.83;99364.83;67921;1275;1016531;-57
2023/08/21 01:27:21;;;;;;;28.20;14.90;;;;;;;27.54;50.68;99362.79;67921;1275;1019069;-57
2023/08/21 01:30:23;;;;;;;27.90;14.10;;;;;;;27.50;50.46;99357.11;67963;1275;1018794;-59
2023/08/21 01:33:26;;;;;;;21.70;8.60;;;;;;;27.62;50.27;99359.31;67933;1275;1018458;-57
2023/08/21 01:36:28;;;;;;;27.40;14.00;;;;;;;27.55;50.25;99357.08;67892;1275;1016551;-57
2023/08/21 01:39:31;;;;;;;26.70;14.10;;;;;;;27.47;49.92;99352.85;67896;1275;1016454;-57
2023/08/21 01:42:33;;;;;;;24.40;11.80;;;;;;;27.41;50.12;99358.26;67964;1275;1016228;-57
2023/08/21 01:45:35;;;;;;;18.80;7.80;;;;;;;27.44;50.27;99359.36;67918;1275;1016204;-60
2023/08/21 01:48:38;;;;;;;21.80;11.20;;;;;;;27.46;50.15;99355.20;67909;1275;1016523;-57
2023/08/21 01:51:40;;;;;;;22.60;11.30;;;;;;;27.48;49.84;99353.64;67894;1275;1016080;-57
2023/08/21 01:54:43;;;;;;;23.70;11.00;;;;;;;27.34;50.03;99357.36;67884;1275;1016237;-61
2023/08/21 01:57:45;;;;;;;26.00;12.80;;;;;;;27.17;50.37;99357.23;67968;1275;1016362;-62
2023/08/21 02:00:48;;;;;;;24.70;13.30;;;;;;;27.09;50.55;99357.60;67971;1275;1017134;-61
2023/08/21 02:03:50;;;;;;;27.40;13.80;;;;;;;27.16;50.43;99356.11;67908;1275;1016456;-60
2023/08/21 02:06:52;;;;;;;25.20;13.60;;;;;;;27.24;50.36;99351.89;67916;1275;1016263;-62
2023/08/21 02:09:55;;;;;;;25.70;13.40;;;;;;;27.17;50.26;99346.27;67921;1275;1019511;-59
2023/08/21 02:12:57;;;;;;;25.00;14.00;;;;;;;26.93;50.72;99345.63;67916;1275;1015984;-59
2023/08/21 02:16:00;;;;;;;26.40;14.30;;;;;;;26.96;50.76;99345.42;67933;1275;1016242;-59
2023/08/21 02:19:02;;;;;;;25.90;13.80;;;;;;;27.04;50.47;99340.17;67863;1275;1016442;-59
2023/08/21 02:22:05;;;;;;;25.50;13.80;;;;;;;26.92;50.74;99340.23;67850;1275;1016336;-58
2023/08/21 02:25:07;;;;;;;26.90;15.10;;;;;;;26.92;51.16;99342.17;67902;1275;1016304;-62
2023/08/21 02:28:10;;;;;;;27.10;13.80;;;;;;;26.90;50.93;99338.90;67973;1275;1016564;-61
2023/08/21 02:31:12;;;;;;;27.00;14.70;;;;;;;26.88;50.83;99338.63;67970;1275;1016150;-59
2023/08/21 02:34:15;;;;;;;27.10;14.50;;;;;;;26.77;51.04;99338.61;67873;1275;1016265;-62
2023/08/21 02:37:17;;;;;;;25.50;14.10;;;;;;;26.66;51.32;99344.83;67927;1275;1016514;-62
2023/08/21 02:40:20;;;;;;;26.30;13.90;;;;;;;26.65;50.96;99336.92;67931;1275;1016507;-60
2023/08/21 02:43:22;;;;;;;27.50;14.50;;;;;;;26.70;50.54;99334.85;67969;1275;1016427;-62
2023/08/21 02:46:24;;;;;;;25.60;13.60;;;;;;;26.74;50.68;99332.13;67905;1275;1016077;-62
2023/08/21 02:49:27;;;;;;;27.00;13.90;;;;;;;26.86;50.84;99329.56;67932;1275;1016433;-59
2023/08/21 02:52:29;;;;;;;25.50;14.40;;;;;;;26.96;50.55;99325.34;67825;1275;1016529;-60
2023/08/21 02:55:32;;;;;;;26.20;13.90;;;;;;;26.95;50.64;99328.89;67936;1275;1016285;-61
2023/08/21 02:58:34;;;;;;;27.30;13.80;;;;;;;26.79;51.06;99326.33;67979;1275;1016880;-59
2023/08/21 03:01:37;;;;;;;27.80;14.40;;;;;;;26.76;50.95;99326.29;67958;1275;1016441;-62
2023/08/21 03:04:39;;;;;;;27.30;14.40;;;;;;;26.65;51.26;99324.20;67941;1275;1018847;-59
2023/08/21 03:07:42;;;;;;;22.50;11.00;;;;;;;26.54;51.76;99331.41;67895;1275;1018040;-59
2023/08/21 03:10:44;;;;;;;25.30;12.70;;;;;;;26.44;51.75;99329.44;67898;1275;1016231;-60
2023/08/21 03:13:47;;;;;;;21.20;9.80;;;;;;;26.30;52.08;99339.12;67960;1275;1015883;-62
2023/08/21 03:16:49;;;;;;;19.10;8.00;;;;;;;25.96;52.17;99342.15;67920;1275;1016336;-59
2023/08/21 03:19:52;;;;;;;20.40;8.20;;;;;;;25.74;52.09;99344.00;67907;1275;1017268;-61
2023/08/21 03:22:54;;;;;;;21.80;9.90;;;;;;;25.75;52.47;99345.90;67962;1275;1016685;-60
2023/08/21 03:25:56;;;;;;;24.80;12.20;;;;;;;25.76;52.79;99342.70;67918;1275;1016140;-61
2023/08/21 03:28:59;;;;;;;27.90;12.90;;;;;;;25.89;52.59;99342.56;67961;1275;1016236;-59
2023/08/21 03:32:01;;;;;;;26.40;13.30;;;;;;;25.90;52.68;99341.02;67937;1275;1016144;-60
2023/08/21 03:35:04;;;;;;;25.50;13.70;;;;;;;25.92;52.80;99342.27;67889;1275;1017763;-59
2023/08/21 03:38:06;;;;;;;24.90;13.40;;;;;;;25.99;52.73;99339.11;67912;1275;1018148;-59
2023/08/21 03:41:09;;;;;;;26.60;13.70;;;;;;;26.06;52.69;99339.44;67952;1275;1016452;-59
2023/08/21 03:44:11;;;;;;;26.70;13.20;;;;;;;26.10;52.49;99336.75;67943;1275;1016250;-60
2023/08/21 03:47:13;;;;;;;26.10;13.40;;;;;;;26.03;52.44;99333.88;67892;1275;1016614;-59
2023/08/21 03:50:16;;;;;;;25.90;14.00;;;;;;;26.05;52.37;99334.48;67912;1275;1016464;-60
2023/08/21 03:53:18;;;;;;;25.60;11.90;;;;;;;26.10;52.27;99342.29;67908;1275;1016444;-58
2023/08/21 03:56:21;;;;;;;21.70;11.10;;;;;;;26.01;52.29;99341.75;67950;1275;1016388;-60
2023/08/21 03:59:27;;;;;;;24.00;11.90;;;;;;;25.95;52.28;99345.90;67897;1275;1016441;-59
2023/08/21 04:02:29;;;;;;;23.50;10.50;;;;;;;25.98;52.52;99344.32;67937;1275;1016509;-62
2023/08/21 04:05:32;;;;;;;26.40;12.70;;;;;;;26.05;52.82;99338.88;67918;1275;1016126;-62
2023/08/21 04:08:34;;;;;;;25.30;11.50;;;;;;;26.10;52.81;99342.73;67893;1275;1016125;-59
2023/08/21 04:11:37;;;;;;;20.40;9.90;;;;;;;26.26;52.43;99349.23;67911;1275;1016036;-59
2023/08/21 04:14:40;;;;;;;22.30;10.80;;;;;;;26.36;52.05;99350.51;67923;1275;1016444;-59
2023/08/21 04:17:42;;;;;;;27.30;12.30;;;;;;;26.38;52.03;99349.26;67908;1275;1016486;-59
2023/08/21 04:20:45;;;;;;;24.10;10.90;;;;;;;26.46;52.04;99349.45;67878;1275;1016997;-59
2023/08/21 04:23:47;;;;;;;23.40;10.80;;;;;;;26.60;52.02;99347.95;67909;1275;1016455;-61
2023/08/21 04:26:50;;;;;;;23.30;11.10;;;;;;;26.77;51.92;99343.27;67918;1275;1016489;-59
2023/08/21 04:29:52;;;;;;;24.70;11.90;;;;;;;26.99;51.97;99342.19;67919;1275;1016204;-59
2023/08/21 04:32:55;;;;;;;23.20;12.00;;;;;;;27.25;51.58;99342.17;67895;1275;1020095;-60
2023/08/21 04:35:57;;;;;;;25.30;11.60;;;;;;;27.47;51.20;99338.83;67971;1275;1015900;-62
2023/08/21 04:38:59;;;;;;;23.70;11.10;;;;;;;27.54;51.22;99332.44;67936;1275;1016419;-61
2023/08/21 04:42:02;;;;;;;25.00;13.30;;;;;;;27.73;51.07;99321.94;67936;1275;1016414;-59
2023/08/21 04:45:05;;;;;;;27.20;12.60;;;;;;;27.83;51.47;99313.04;67924;1275;1016168;-62
2023/08/21 04:48:08;;;;;;;24.40;12.30;;;;;;;28.04;51.21;99312.53;67954;1275;1016548;-61
2023/08/21 04:51:10;;;;;;;24.60;13.20;;;;;;;28.26;50.96;99317.52;67959;1275;1016371;-59
2023/08/21 04:54:12;;;;;;;24.70;12.70;;;;;;;28.46;51.02;99322.26;67893;1275;1016179;-59
2023/08/21 04:57:15;;;;;;;28.50;13.80;;;;;;;28.74;50.78;99329.50;67899;1275;1016324;-59
2023/08/21 05:00:18;;;;;;;24.30;12.70;;;;;;;29.03;50.43;99330.29;67965;1275;1016196;-62
2023/08/21 05:03:20;;;;;;;23.60;12.30;;;;;;;29.38;50.35;99333.90;67951;1275;1015914;-60
2023/08/21 05:06:23;;;;;;;22.80;11.90;;;;;;;29.51;50.15;99341.98;67924;1275;1016646;-59
2023/08/21 05:09:26;;;;;;;25.10;12.20;;;;;;;29.53;50.04;99344.95;67965;1275;1018643;-62
2023/08/21 05:12:28;;;;;;;24.30;12.80;;;;;;;29.53;50.32;99348.55;67969;1275;1016773;-62
2023/08/21 05:15:30;;;;;;;22.70;12.20;;;;;;;29.75;50.40;99344.86;67867;1275;1016874;-62
2023/08/21 05:18:33;;;;;;;25.40;13.40;;;;;;;30.18;49.97;99342.20;67923;1275;1016439;-61
2023/08/21 05:21:35;;;;;;;26.10;14.40;;;;;;;30.41;49.96;99334.94;67951;1275;1016808;-60
2023/08/21 05:24:38;;;;;;;31.40;15.40;;;;;;;30.87;49.82;99331.27;67947;1275;1016590;-62
2023/08/21 05:27:40;;;;;;;27.70;16.40;;;;;;;31.16;49.38;99323.09;67906;1275;1016192;-62
2023/08/21 05:30:43;;;;;;;30.20;15.90;;;;;;;31.36;49.36;99324.14;67912;1275;1016073;-62
2023/08/21 05:33:45;;;;;;;34.20;16.40;;;;;;;31.61;49.34;99329.18;67910;1275;1019734;-61
2023/08/21 05:36:48;;;;;;;28.10;16.20;;;;;;;31.93;48.56;99343.82;67971;1275;1016548;-60
2023/08/21 05:39:50;;;;;;;31.20;16.60;;;;;;;32.17;48.35;99350.65;67944;1275;1016476;-56
2023/08/21 05:42:52;;;;;;;28.10;16.50;;;;;;;32.43;48.09;99352.89;67938;1275;1016623;-57
2023/08/21 05:45:55;;;;;;;30.70;17.00;;;;;;;32.49;47.48;99359.02;67921;1275;1016237;-59
2023/08/21 05:48:57;;;;;;;31.70;18.10;;;;;;;32.38;47.69;99359.66;67975;1275;1016268;-57
2023/08/21 05:52:00;;;;;;;30.60;18.00;;;;;;;32.45;47.69;99359.48;67862;1275;1016511;-60
2023/08/21 05:55:02;;;;;;;33.30;19.10;;;;;;;32.62;47.41;99362.69;67952;1275;1016488;-57
2023/08/21 05:58:05;;;;;;;32.00;18.70;;;;;;;32.74;46.85;99370.46;67894;1275;1018803;-60
2023/08/21 06:01:07;;;;;;;32.00;18.10;;;;;;;32.70;47.14;99377.86;67932;1275;1016432;-59
2023/08/21 06:04:10;;;;;;;32.90;18.50;;;;;;;32.59;47.27;99382.80;67966;1275;1016472;-58
2023/08/21 06:07:12;;;;;;;30.30;17.60;;;;;;;32.43;47.16;99390.17;67988;1275;1016517;-57
2023/08/21 06:10:15;;;;;;;33.90;17.40;;;;;;;32.16;47.35;99392.55;67902;1275;1016471;-56
2023/08/21 06:13:18;;;;;;;34.50;18.30;;;;;;;31.80;48.03;99401.39;67957;1275;1016407;-59
2023/08/21 06:16:20;;;;;;;31.70;18.50;;;;;;;31.47;48.53;99414.32;67964;1275;1016436;-60
2023/08/21 06:19:22;;;;;;;34.20;17.90;;;;;;;31.17;49.80;99433.39;67929;1275;1016307;-58
2023/08/21 06:22:25;;;;;;;34.00;17.40;;;;;;;30.91;51.00;99443.91;67913;1275;1019291;-59
2023/08/21 06:25:27;;;;;;;30.70;17.20;;;;;;;30.67;51.78;99453.34;67923;1275;1016459;-57
2023/08/21 06:28:30;;;;;;;29.90;16.40;;;;;;;30.36;51.97;99459.20;67995;1275;1016338;-59
2023/08/21 06:31:32;;;;;;;28.20;16.60;;;;;;;30.41;50.96;99458.81;67985;1275;1016447;-57
2023/08/21 06:34:35;;;;;;;28.60;16.30;;;;;;;30.24;51.02;99464.92;67924;1275;1016405;-57
2023/08/21 06:37:37;;;;;;;29.50;16.10;;;;;;;30.22;50.97;99465.58;67924;1275;1018209;-58
2023/08/21 06:40:40;;;;;;;29.30;16.80;;;;;;;30.12;51.63;99477.55;67932;1275;1016477;-59
2023/08/21 06:43:43;;;;;;;30.00;16.10;;;;;;;30.10;51.52;99485.74;67980;1275;1015898;-57
2023/08/21 06:46:45;;;;;;;28.90;16.60;;;;;;;30.07;51.53;99490.15;67937;1275;1016505;-57
2023/08/21 06:49:48;;;;;;;34.20;17.30;;;;;;;30.00;51.52;99486.64;68000;1275;1016197;-57
2023/08/21 06:52:50;;;;;;;29.80;17.20;;;;;;;29.87;52.27;99491.86;67987;1275;1016149;-60
2023/08/21 06:55:53;;;;;;;30.60;16.60;;;;;;;29.84;52.28;99493.62;67969;1275;1016182;-57
2023/08/21 06:58:56;;;;;;;30.30;17.50;;;;;;;29.96;52.24;99484.52;67894;1275;1016217;-60
2023/08/21 07:01:58;;;;;;;28.30;16.00;;;;;;;29.96;52.23;99489.42;67970;1275;1016906;-60
2023/08/21 07:05:00;;;;;;;27.40;16.00;;;;;;;29.96;52.58;99498.44;67984;1275;1016162;-59
2023/08/21 07:08:03;;;;;;;28.80;16.10;;;;;;;29.83;53.26;99509.66;67982;1275;1016431;-57
2023/08/21 07:11:05;;;;;;;28.10;16.70;;;;;;;29.82;53.31;99510.83;67913;1275;1016430;-59
2023/08/21 07:14:08;;;;;;;29.60;16.30;;;;;;;29.80;53.65;99517.64;67950;1275;1016367;-59
2023/08/21 07:17:11;;;;;;;29.80;16.80;;;;;;;30.03;53.44;99509.58;67991;1275;1016427;-59
2023/08/21 07:20:13;;;;;;;29.80;16.70;;;;;;;30.21;52.76;99516.57;67958;1275;1016363;-59
2023/08/21 07:23:16;;;;;;;28.40;15.80;;;;;;;30.46;52.45;99515.30;67940;1275;1016451;-58
2023/08/21 07:26:18;;;;;;;27.90;15.20;;;;;;;30.51;52.64;99518.96;67920;1275;1016393;-59
2023/08/21 07:29:20;;;;;;;27.90;15.80;;;;;;;30.58;52.47;99513.98;67952;1275;1016371;-59
2023/08/21 07:32:23;;;;;;;28.90;15.30;;;;;;;30.76;52.31;99505.98;67948;1275;1015798;-58
2023/08/21 07:35:25;;;;;;;27.20;14.40;;;;;;;31.11;51.72;99512.06;67997;1275;1016204;-59
2023/08/21 07:38:28;;;;;;;29.90;16.00;;;;;;;31.20;51.82;99517.55;67934;1275;1016097;-60
2023/08/21 07:41:31;;;;;;;26.60;14.30;;;;;;;31.48;51.30;99519.17;67975;1275;1016402;-60
2023/08/21 07:44:33;;;;;;;24.90;13.50;;;;;;;31.38;51.36;99525.80;67964;1275;1016392;-59
2023/08/21 07:47:35;;;;;;;25.50;13.50;;;;;;;31.44;51.40;99523.06;67973;1275;1016331;-59
2023/08/21 07:50:38;;;;;;;27.30;14.40;;;;;;;31.37;51.49;99527.46;67922;1275;1016682;-59
2023/08/21 07:53:40;;;;;;;25.00;13.70;;;;;;;31.44;51.55;99527.64;67943;1275;1018772;-60
2023/08/21 07:56:43;;;;;;;26.50;13.00;;;;;;;31.46;51.58;99522.64;68000;1275;1016509;-57
2023/08/21 07:59:45;;;;;;;24.50;13.00;;;;;;;31.64;51.42;99522.52;68013;1275;1016854;-58
2023/08/21 08:02:48;;;;;;;25.00;12.10;;;;;;;31.59;51.30;99519.58;67865;1275;1016167;-59
2023/08/21 08:05:50;;;;;;;22.70;11.70;;;;;;;31.66;51.30;99512.42;67918;1275;1016330;-57
2023/08/21 08:08:53;;;;;;;24.80;12.20;;;;;;;31.92;50.86;99515.77;67920;1275;1016547;-58
2023/08/21 08:11:55;;;;;;;24.50;11.90;;;;;;;32.02;50.50;99513.76;67944;1275;1016480;-59
2023/08/21 08:14:57;;;;;;;23.30;11.20;;;;;;;32.01;50.55;99512.96;67979;1275;1016392;-59
2023/08/21 08:18:00;;;;;;;23.80;12.00;;;;;;;31.97;50.80;99510.99;67971;1275;1016481;-59
2023/08/21 08:21:02;;;;;;;24.00;12.80;;;;;;;31.99;50.62;99515.45;67950;1275;1019627;-59
2023/08/21 08:24:05;;;;;;;24.60;12.00;;;;;;;32.13;50.47;99515.50;67929;1275;1016377;-59
2023/08/21 08:27:07;;;;;;;23.00;12.20;;;;;;;32.20;50.45;99516.48;67978;1275;1016452;-60
2023/08/21 08:30:10;;;;;;;21.80;11.20;;;;;;;32.43;50.46;99517.63;67976;1275;1016409;-59
2023/08/21 08:33:12;;;;;;;23.90;11.20;;;;;;;32.63;49.77;99520.52;67928;1275;1019063;-59
2023/08/21 08:36:15;;;;;;;22.00;11.50;;;;;;;32.73;49.60;99516.84;67917;1275;1016498;-58
2023/08/21 08:39:17;;;;;;;22.10;11.10;;;;;;;32.93;49.18;99517.83;67989;1275;1018061;-59
2023/08/21 08:42:20;;;;;;;23.60;10.50;;;;;;;33.05;48.97;99514.53;67993;1275;1016556;-59
2023/08/21 08:45:22;;;;;;;23.50;11.40;;;;;;;33.34;48.77;99503.54;67940;1275;1016729;-60
2023/08/21 08:48:26;;;;;;;23.90;10.90;;;;;;;33.78;47.90;99500.23;67923;1275;1016485;-57
2023/08/21 08:51:29;;;;;;;24.50;11.00;;;;;;;33.77;47.66;99497.51;67939;1275;1018132;-59
2023/08/21 08:54:31;;;;;;;23.20;11.10;;;;;;;33.70;47.78;99496.64;67943;1275;1016450;-60
2023/08/21 08:57:33;;;;;;;22.00;11.10;;;;;;;33.86;47.64;99496.45;67994;1275;1016407;-60
2023/08/21 09:00:36;;;;;;;21.10;10.40;;;;;;;34.13;47.63;99495.56;67930;1275;1016342;-59
2023/08/21 09:03:38;;;;;;;22.60;11.00;;;;;;;34.29;47.81;99496.61;67956;1275;1017833;-59
2023/08/21 09:06:41;;;;;;;23.80;11.00;;;;;;;34.34;47.38;99495.82;67908;1275;1016509;-59
2023/08/21 09:09:43;;;;;;;23.20;11.20;;;;;;;34.29;47.70;99494.11;67993;1275;1015895;-59
2023/08/21 09:12:46;;;;;;;21.30;9.90;;;;;;;34.12;47.30;99487.23;67990;1275;1016212;-57
2023/08/21 09:15:48;;;;;;;23.80;10.60;;;;;;;34.11;47.18;99481.54;67873;1275;1016225;-60
2023/08/21 09:18:51;;;;;;;23.50;10.90;;;;;;;34.22;47.05;99482.34;67907;1275;1016636;-60
2023/08/21 09:21:53;;;;;;;21.70;10.00;;;;;;;34.46;47.32;99477.92;67906;1275;1016635;-57
2023/08/21 09:24:55;;;;;;;23.40;10.60;;;;;;;34.64;46.87;99466.86;67960;1275;1016460;-59
2023/08/21 09:27:58;;;;;;;22.80;10.50;;;;;;;34.82;46.51;99463.54;67901;1275;1016241;-59
2023/08/21 09:31:02;;;;;;;20.80;10.00;;;;;;;35.01;45.75;99466.76;67967;1275;1016361;-60
2023/08/21 09:34:05;;;;;;;24.90;10.80;;;;;;;35.07;45.42;99462.58;67932;1275;1016347;-59
2023/08/21 09:37:08;;;;;;;21.70;10.10;;;;;;;35.34;45.43;99452.80;67964;1275;1016277;-59
2023/08/21 09:40:11;;;;;;;21.10;10.60;;;;;;;35.27;44.65;99448.40;67905;1275;1017644;-60
2023/08/21 09:43:13;;;;;;;21.50;10.50;;;;;;;35.17;44.95;99437.77;67973;1275;1016383;-58
2023/08/21 09:46:16;;;;;;;20.20;9.90;;;;;;;35.66;44.40;99442.56;67970;1275;1016344;-57
2023/08/21 09:49:18;;;;;;;19.50;9.70;;;;;;;35.89;43.85;99441.84;67929;1275;1016488;-60
2023/08/21 09:52:21;;;;;;;21.70;10.00;;;;;;;36.14;43.70;99436.60;67890;1275;1016516;-60
2023/08/21 09:55:25;;;;;;;20.60;9.60;;;;;;;36.22;43.43;99443.84;67972;1275;1016759;-58
2023/08/21 09:58:28;;;;;;;20.90;9.80;;;;;;;36.16;43.76;99443.80;67912;1275;1016352;-60
2023/08/21 10:01:30;;;;;;;20.80;9.70;;;;;;;36.30;43.33;99440.44;67834;1275;1016513;-59
2023/08/21 10:04:33;;;;;;;21.20;9.70;;;;;;;36.31;43.20;99437.11;67907;1275;1018442;-59
2023/08/21 10:07:35;;;;;;;20.10;9.50;;;;;;;36.60;43.63;99435.06;67969;1275;1016936;-59
2023/08/21 10:10:38;;;;;;;21.30;9.30;;;;;;;36.73;42.39;99435.92;67969;1275;1016510;-60
2023/08/21 10:13:40;;;;;;;20.40;9.90;;;;;;;36.56;42.47;99435.12;67974;1275;1016988;-60
2023/08/21 10:16:42;;;;;;;20.20;9.50;;;;;;;36.40;42.55;99436.52;67845;1275;1016206;-60
2023/08/21 10:19:45;;;;;;;22.60;10.60;;;;;;;36.28;42.94;99437.02;67894;1275;1016758;-57
2023/08/21 10:22:48;;;;;;;22.50;9.90;;;;;;;36.32;42.59;99434.14;67962;1275;1015989;-60
2023/08/21 10:25:53;;;;;;;24.30;10.50;;;;;;;36.49;42.84;99433.66;67945;1275;1016576;-59
2023/08/21 10:28:55;;;;;;;20.20;9.70;;;;;;;36.80;41.86;99432.69;67896;1275;1016402;-59
2023/08/21 10:31:57;;;;;;;23.70;10.30;;;;;;;37.13;41.85;99430.56;67977;1275;1016575;-59
2023/08/21 10:35:00;;;;;;;22.20;9.60;;;;;;;37.35;41.69;99429.17;67856;1275;1016656;-60
2023/08/21 10:38:02;;;;;;;22.10;8.80;;;;;;;37.45;41.11;99431.15;67923;1275;1016467;-59
2023/08/21 10:41:05;;;;;;;19.30;8.30;;;;;;;37.91;41.20;99430.21;67905;1275;1015947;-57
2023/08/21 10:44:08;;;;;;;18.20;7.30;;;;;;;37.98;39.71;99429.68;67880;1275;1016403;-56
2023/08/21 10:47:10;;;;;;;18.70;8.30;;;;;;;38.26;40.38;99423.98;67975;1275;1018885;-59
2023/08/21 10:50:13;;;;;;;19.40;8.80;;;;;;;38.22;39.61;99424.44;67917;1275;1016600;-59
2023/08/21 10:53:15;;;;;;;18.80;8.50;;;;;;;37.74;39.14;99428.67;67908;1275;1017188;-57
2023/08/21 10:56:17;;;;;;;19.50;9.00;;;;;;;37.12;39.90;99431.66;67943;1275;1016461;-58
2023/08/21 10:59:20;;;;;;;19.50;9.20;;;;;;;37.00;40.37;99435.81;67985;1275;1016720;-60
2023/08/21 11:02:22;;;;;;;19.70;8.40;;;;;;;37.03;40.54;99426.77;67933;1275;1016947;-58
2023/08/21 11:05:26;;;;;;;18.20;8.10;;;;;;;36.70;40.40;99434.67;67959;1275;1016468;-57
2023/08/21 11:08:28;;;;;;;20.10;9.00;;;;;;;36.27;40.67;99439.99;67937;1275;1016960;-58
2023/08/21 11:11:31;;;;;;;18.00;8.40;;;;;;;36.00;41.10;99433.81;67900;1275;1018884;-59
2023/08/21 11:14:34;;;;;;;19.80;8.60;;;;;;;35.85;41.38;99438.18;67912;1261;1016367;-56
2023/08/21 11:17:37;;;;;;;17.80;8.10;;;;;;;35.84;41.74;99437.34;67929;1275;1016413;-58
2023/08/21 11:20:39;;;;;;;21.30;9.10;;;;;;;35.81;42.08;99436.51;67918;1275;1016365;-57
2023/08/21 11:23:42;;;;;;;19.80;9.10;;;;;;;35.58;42.68;99437.96;67913;1275;1016568;-60
2023/08/21 11:26:44;;;;;;;18.90;8.50;;;;;;;35.65;42.54;99437.94;67951;1275;1016547;-56
2023/08/21 11:29:47;;;;;;;19.60;8.60;;;;;;;35.39;43.04;99431.62;67950;1275;1016358;-57
2023/08/21 11:32:50;;;;;;;20.20;8.30;;;;;;;35.38;43.13;99437.75;67919;1275;1016975;-59
2023/08/21 11:35:53;;;;;;;18.20;8.10;;;;;;;35.34;43.15;99439.73;67963;1275;1016393;-59
2023/08/21 11:38:55;;;;;;;18.50;6.80;;;;;;;35.14;43.54;99441.81;67924;1275;1018218;-59
2023/08/21 11:41:58;;;;;;;17.20;6.40;;;;;;;35.23;43.21;99440.04;67914;1275;1016315;-59
2023/08/21 11:45:00;;;;;;;18.80;7.20;;;;;;;35.08;43.13;99441.46;67972;1275;1016905;-58
2023/08/21 11:48:03;;;;;;;17.10;6.80;;;;;;;35.05;43.38;99439.60;67961;1275;1016032;-58
2023/08/21 11:51:06;;;;;;;16.90;6.30;;;;;;;35.33;43.22;99441.29;67925;1275;1016955;-59
2023/08/21 11:54:08;;;;;;;16.80;7.00;;;;;;;35.66;43.14;99441.06;67904;1275;1016744;-58
2023/08/21 11:57:10;;;;;;;17.40;6.90;;;;;;;35.79;42.64;99446.96;67908;1275;1016432;-59
2023/08/21 12:00:14;;;;;;;16.30;6.60;;;;;;;35.81;43.18;99447.24;67959;1275;1016363;-60
2023/08/21 12:03:16;;;;;;;17.60;7.00;;;;;;;35.89;43.14;99441.08;67906;1275;1017258;-56
2023/08/21 12:06:18;;;;;;;19.30;6.80;;;;;;;35.93;43.07;99445.46;67882;1275;1016520;-60
2023/08/21 12:09:21;;;;;;;16.80;6.30;;;;;;;36.17;43.00;99438.62;67870;1275;1016427;-59
2023/08/21 12:12:23;;;;;;;14.00;5.80;;;;;;;36.27;42.78;99444.86;67964;1275;1016644;-60
2023/08/21 12:15:26;;;;;;;15.60;5.60;;;;;;;36.16;42.80;99450.29;67972;1275;1016191;-60
2023/08/21 12:18:28;;;;;;;13.90;5.30;;;;;;;36.39;42.19;99450.08;67937;1275;1016362;-60
2023/08/21 12:21:33;;;;;;;16.30;5.20;;;;;;;36.56;41.29;99442.33;67895;1275;1016365;-59
2023/08/21 12:24:36;;;;;;;14.70;5.50;;;;;;;36.89;41.04;99437.96;67897;1275;1016184;-60
2023/08/21 12:27:39;;;;;;;14.20;5.10;;;;;;;37.21;40.63;99432.59;67881;1275;1016332;-60
2023/08/21 12:30:41;;;;;;;13.10;4.90;;;;;;;37.64;40.31;99430.70;67981;1275;1020042;-60
2023/08/21 12:33:44;;;;;;;13.30;4.60;;;;;;;38.09;40.07;99432.63;67952;1275;1017673;-60
2023/08/21 12:36:46;;;;;;;9.90;4.20;;;;;;;38.31;39.48;99430.88;67916;1275;1016442;-59
2023/08/21 12:39:48;;;;;;;11.90;4.70;;;;;;;38.29;38.49;99436.27;67917;1275;1018653;-59
2023/08/21 12:42:51;;;;;;;12.10;4.50;;;;;;;38.17;39.01;99431.40;67868;1275;1016394;-59
2023/08/21 12:45:54;;;;;;;10.90;4.50;;;;;;;38.27;38.72;99431.70;67940;1275;1016263;-60
2023/08/21 12:48:56;;;;;;;12.10;5.00;;;;;;;38.04;38.63;99436.27;67954;1275;1016425;-60
2023/08/21 12:51:59;;;;;;;12.60;4.80;;;;;;;37.79;38.84;99435.10;67926;1275;1018531;-58
2023/08/21 12:55:06;;;;;;;15.00;6.40;;;;;;;37.86;39.42;99428.38;67926;1275;1016924;-60
2023/08/21 12:58:08;;;;;;;13.60;5.00;;;;;;;38.01;38.59;99425.95;67954;1275;1016910;-60
2023/08/21 13:01:11;;;;;;;12.20;4.90;;;;;;;38.23;38.67;99420.94;67898;1275;1016379;-57
2023/08/21 13:04:13;;;;;;;12.40;5.00;;;;;;;38.12;38.24;99419.85;67893;1275;1016466;-60
2023/08/21 13:07:15;;;;;;;13.00;5.00;;;;;;;38.18;38.24;99415.91;67898;1275;1016472;-58
2023/08/21 13:10:18;;;;;;;15.60;5.50;;;;;;;37.97;38.57;99414.68;67930;1275;1017012;-59
2023/08/21 13:13:20;;;;;;;13.90;5.40;;;;;;;37.90;38.17;99413.09;67948;1275;1016392;-60
2023/08/21 13:16:22;;;;;;;14.00;5.30;;;;;;;37.99;38.57;99404.91;67954;1275;1016114;-60
2023/08/21 13:19:25;;;;;;;13.60;5.20;;;;;;;38.58;38.19;99402.52;67859;1275;1015995;-56
2023/08/21 13:22:27;;;;;;;15.40;5.50;;;;;;;38.91;37.07;99405.95;67890;1275;1017257;-60
2023/08/21 13:25:30;;;;;;;13.90;5.40;;;;;;;38.98;36.47;99399.84;67915;1275;1016232;-60
2023/08/21 13:28:33;;;;;;;13.30;5.20;;;;;;;39.08;36.63;99394.95;67911;1275;1016624;-60
2023/08/21 13:31:36;;;;;;;15.60;5.50;;;;;;;39.08;36.61;99388.92;67937;1275;1016448;-58
2023/08/21 13:34:38;;;;;;;12.60;5.00;;;;;;;39.11;35.58;99387.19;67950;1275;1016854;-57
2023/08/21 13:37:41;;;;;;;13.90;5.40;;;;;;;39.65;35.50;99385.09;67932;1275;1016375;-56
2023/08/21 13:40:43;;;;;;;14.60;5.20;;;;;;;39.93;34.83;99385.80;67904;1275;1016478;-60
2023/08/21 13:43:46;;;;;;;16.50;5.50;;;;;;;39.66;34.81;99385.13;67901;1275;1016149;-58